Time;durP1;ratioP1;P1;durP2;ratioP2;P2;SDS_P1;SDS_P2;PMS_P1;PMS_P2;Temp;Humidity;BMP_temperature;BMP_pressure;BME280_temperature;BME280_humidity;BME280_pressure;Samples;Min_cycle;Max_cycle;Signal;HPM_P1;HPM_P2
2021/11/28 00:02:19;;;;;;;0.70;0.53;;;;;;;;;;1853580;75;26288;-29
2021/11/28 00:04:46;;;;;;;1.37;0.30;;;;;;;;;;1847411;75;26379;-28
2021/11/28 00:15:10;;;;;;;0.68;0.30;;;;;;;;;;1861324;77;26348;-29
2021/11/28 00:17:38;;;;;;;1.20;0.40;;;;;;;;;;1861303;75;26706;-29
2021/11/28 00:20:08;;;;;;;1.65;0.40;;;;;;;;;;1856692;77;26257;-29
2021/11/28 00:22:39;;;;;;;1.55;0.50;;;;;;;;;;1846939;75;26891;-28
2021/11/28 00:25:07;;;;;;;0.65;0.37;;;;;;;;;;1850016;76;26315;-29
2021/11/28 00:27:34;;;;;;;0.42;0.30;;;;;;;;;;1856181;76;26315;-30
2021/11/28 00:30:03;;;;;;;0.85;0.40;;;;;;;;;;1862567;77;26331;-29
2021/11/28 00:32:30;;;;;;;0.20;0.20;;;;;;;;;;1861593;75;26753;-28
2021/11/28 00:34:58;;;;;;;0.53;0.40;;;;;;;;;;1849974;77;26264;-29
2021/11/28 00:37:25;;;;;;;0.60;0.55;;;;;;;;;;1854014;77;26264;-29
2021/11/28 00:39:52;;;;;;;0.50;0.50;;;;;;;;;;1850672;77;26316;-28
2021/11/28 00:42:20;;;;;;;0.40;0.40;;;;;;;;;;1849294;75;26760;-28
2021/11/28 00:44:47;;;;;;;0.20;0.20;;;;;;;;;;1861538;75;26315;-29
2021/11/28 00:47:15;;;;;;;1.50;0.40;;;;;;;;;;1853008;76;26248;-28
2021/11/28 00:50:03;;;;;;;2.40;0.55;;;;;;;;;;1859537;75;26593;-29
2021/11/28 00:52:11;;;;;;;2.62;0.30;;;;;;;;;;1851987;77;26261;-29
2021/11/28 00:54:38;;;;;;;1.55;0.45;;;;;;;;;;1856940;77;26257;-30
2021/11/28 00:57:06;;;;;;;0.47;0.40;;;;;;;;;;1857013;75;26225;-29
2021/11/28 00:59:33;;;;;;;0.30;0.30;;;;;;;;;;1845117;76;26854;-29
2021/11/28 01:02:01;;;;;;;0.33;0.33;;;;;;;;;;1851363;75;26740;-29
2021/11/28 01:04:28;;;;;;;0.50;0.50;;;;;;;;;;1855896;76;26316;-29
2021/11/28 01:06:55;;;;;;;0.60;0.40;;;;;;;;;;1859448;77;26253;-29
2021/11/28 01:09:24;;;;;;;1.92;0.40;;;;;;;;;;1851010;77;26688;-29
2021/11/28 01:11:51;;;;;;;0.40;0.40;;;;;;;;;;1862521;77;26753;-29
2021/11/28 01:14:19;;;;;;;0.30;0.30;;;;;;;;;;1861971;77;26272;-29
2021/11/28 01:16:46;;;;;;;2.42;0.30;;;;;;;;;;1861089;77;26269;-28
2021/11/28 01:19:13;;;;;;;1.00;0.30;;;;;;;;;;1858619;77;26209;-29
2021/11/28 01:21:54;;;;;;;0.93;0.30;;;;;;;;;;1861876;75;26257;-29
2021/11/28 01:24:22;;;;;;;0.30;0.30;;;;;;;;;;1850751;77;26249;-30
2021/11/28 01:26:49;;;;;;;0.20;0.20;;;;;;;;;;1853037;77;26827;-28
2021/11/28 01:29:17;;;;;;;0.42;0.20;;;;;;;;;;1853331;75;26347;-29
2021/11/28 01:31:44;;;;;;;0.20;0.20;;;;;;;;;;1856811;77;26256;-29
2021/11/28 01:34:11;;;;;;;0.70;0.50;;;;;;;;;;1862437;77;26276;-29
2021/11/28 01:36:39;;;;;;;0.30;0.30;;;;;;;;;;1858692;77;26256;-29
2021/11/28 01:39:08;;;;;;;0.20;0.20;;;;;;;;;;1857072;77;26380;-28
2021/11/28 01:41:36;;;;;;;0.30;0.30;;;;;;;;;;1859754;77;26312;-29
2021/11/28 01:44:04;;;;;;;0.45;0.30;;;;;;;;;;1854510;75;26276;-29
2021/11/28 01:46:33;;;;;;;0.30;0.30;;;;;;;;;;1861166;77;26265;-29
2021/11/28 01:49:00;;;;;;;0.30;0.30;;;;;;;;;;1859816;75;26334;-29
2021/11/28 01:51:28;;;;;;;1.00;0.33;;;;;;;;;;1852750;77;26276;-29
2021/11/28 01:53:55;;;;;;;0.53;0.35;;;;;;;;;;1860272;75;26312;-29
2021/11/28 01:56:24;;;;;;;0.30;0.30;;;;;;;;;;1856597;77;26261;-29
2021/11/28 01:58:52;;;;;;;1.62;0.40;;;;;;;;;;1853191;75;26653;-29
2021/11/28 02:01:20;;;;;;;0.45;0.37;;;;;;;;;;1852286;75;26265;-29
2021/11/28 02:03:48;;;;;;;0.30;0.30;;;;;;;;;;1850686;77;26359;-29
2021/11/28 02:06:17;;;;;;;0.40;0.40;;;;;;;;;;1849955;76;26642;-29
2021/11/28 02:08:45;;;;;;;0.30;0.30;;;;;;;;;;1859970;75;26248;-29
2021/11/28 02:11:13;;;;;;;0.28;0.28;;;;;;;;;;1861150;77;27336;-29
2021/11/28 02:13:41;;;;;;;0.25;0.25;;;;;;;;;;1850411;75;26740;-28
2021/11/28 02:16:09;;;;;;;0.20;0.20;;;;;;;;;;1853023;75;26241;-29
2021/11/28 02:18:37;;;;;;;0.30;0.30;;;;;;;;;;1855344;75;26330;-27
2021/11/28 02:21:06;;;;;;;0.30;0.30;;;;;;;;;;1858567;75;26242;-28
2021/11/28 02:23:33;;;;;;;0.30;0.30;;;;;;;;;;1860932;75;26268;-29
2021/11/28 02:26:02;;;;;;;0.28;0.28;;;;;;;;;;1849608;76;26713;-28
2021/11/28 02:28:30;;;;;;;0.40;0.40;;;;;;;;;;1858998;75;26209;-28
2021/11/28 02:30:58;;;;;;;0.40;0.30;;;;;;;;;;1862193;77;26353;-29
2021/11/28 02:33:26;;;;;;;0.28;0.28;;;;;;;;;;1850090;75;26563;-27
2021/11/28 02:35:53;;;;;;;0.20;0.20;;;;;;;;;;1832705;77;26277;-28
2021/11/28 02:38:21;;;;;;;0.33;0.33;;;;;;;;;;1847501;77;26343;-28
2021/11/28 02:40:48;;;;;;;0.20;0.20;;;;;;;;;;1837894;76;26277;-28
2021/11/28 02:43:16;;;;;;;0.30;0.30;;;;;;;;;;1839518;77;26419;-27
2021/11/28 02:45:43;;;;;;;0.33;0.33;;;;;;;;;;1833281;76;26930;-28
2021/11/28 02:48:12;;;;;;;0.60;0.40;;;;;;;;;;1841689;77;26539;-28
2021/11/28 02:50:40;;;;;;;1.55;0.33;;;;;;;;;;1833413;76;26308;-28
2021/11/28 02:53:09;;;;;;;0.53;0.30;;;;;;;;;;1833062;77;26764;-29
2021/11/28 02:55:39;;;;;;;0.20;0.20;;;;;;;;;;1840400;77;26811;-28
2021/11/28 02:58:07;;;;;;;0.50;0.50;;;;;;;;;;1843356;77;26327;-28
2021/11/28 03:00:35;;;;;;;0.30;0.30;;;;;;;;;;1832965;77;26270;-29
2021/11/28 03:03:03;;;;;;;0.40;0.40;;;;;;;;;;1831286;76;26277;-28
2021/11/28 03:05:31;;;;;;;0.40;0.40;;;;;;;;;;1836113;76;26704;-29
2021/11/28 03:07:58;;;;;;;0.33;0.20;;;;;;;;;;1838544;76;26267;-28
2021/11/28 03:10:30;;;;;;;0.30;0.30;;;;;;;;;;1843610;77;26269;-30
2021/11/28 03:12:57;;;;;;;0.30;0.30;;;;;;;;;;1844429;76;27385;-29
2021/11/28 03:15:25;;;;;;;0.35;0.35;;;;;;;;;;1835771;76;26262;-28
2021/11/28 03:17:54;;;;;;;0.20;0.20;;;;;;;;;;1830186;77;26339;-29
2021/11/28 03:20:21;;;;;;;0.42;0.42;;;;;;;;;;1847001;76;26736;-28
2021/11/28 03:22:50;;;;;;;0.28;0.28;;;;;;;;;;1841355;76;26250;-28
2021/11/28 03:25:18;;;;;;;0.40;0.40;;;;;;;;;;1838725;76;26265;-27
2021/11/28 03:27:46;;;;;;;0.30;0.30;;;;;;;;;;1829439;77;26209;-28
2021/11/28 03:30:15;;;;;;;0.40;0.40;;;;;;;;;;1839516;76;26737;-28
2021/11/28 03:32:43;;;;;;;0.30;0.30;;;;;;;;;;1844394;76;26324;-29
2021/11/28 03:35:11;;;;;;;0.37;0.37;;;;;;;;;;1840807;76;26720;-29
2021/11/28 03:37:38;;;;;;;0.30;0.30;;;;;;;;;;1838441;77;26273;-29
2021/11/28 03:40:07;;;;;;;0.40;0.20;;;;;;;;;;1839375;77;27016;-28
2021/11/28 03:42:35;;;;;;;0.30;0.30;;;;;;;;;;1840005;77;26307;-28
2021/11/28 03:45:04;;;;;;;0.33;0.33;;;;;;;;;;1837405;76;26320;-28
2021/11/28 03:47:31;;;;;;;0.50;0.42;;;;;;;;;;1842633;76;26700;-28
2021/11/28 03:49:58;;;;;;;0.30;0.30;;;;;;;;;;1834991;76;26253;-29
2021/11/28 03:52:26;;;;;;;0.30;0.30;;;;;;;;;;1829858;77;26259;-28
2021/11/28 03:54:53;;;;;;;0.30;0.30;;;;;;;;;;1843581;76;26790;-29
2021/11/28 03:57:21;;;;;;;0.30;0.30;;;;;;;;;;1837478;76;26340;-28
2021/11/28 03:59:48;;;;;;;0.40;0.40;;;;;;;;;;1837936;77;26284;-28
2021/11/28 04:02:16;;;;;;;0.30;0.30;;;;;;;;;;1843780;77;27249;-28
2021/11/28 04:04:43;;;;;;;1.20;0.20;;;;;;;;;;1841213;77;26289;-28
2021/11/28 04:07:11;;;;;;;0.30;0.30;;;;;;;;;;1831833;76;26353;-28
2021/11/28 04:09:38;;;;;;;0.30;0.30;;;;;;;;;;1828561;76;26585;-29
2021/11/28 04:12:06;;;;;;;0.40;0.40;;;;;;;;;;1840255;77;26383;-28
2021/11/28 04:14:33;;;;;;;0.30;0.30;;;;;;;;;;1834274;76;26338;-28
2021/11/28 04:17:01;;;;;;;0.30;0.30;;;;;;;;;;1839189;76;26339;-28
2021/11/28 04:19:28;;;;;;;0.23;0.23;;;;;;;;;;1843988;77;26863;-29
2021/11/28 04:21:55;;;;;;;1.27;0.30;;;;;;;;;;1841098;76;26257;-28
2021/11/28 04:24:23;;;;;;;0.30;0.30;;;;;;;;;;1837396;76;26271;-29
2021/11/28 04:26:50;;;;;;;0.20;0.20;;;;;;;;;;1840267;77;27264;-29
2021/11/28 04:29:18;;;;;;;0.30;0.30;;;;;;;;;;1833729;76;26331;-28
2021/11/28 04:31:47;;;;;;;0.28;0.28;;;;;;;;;;1841834;76;26602;-28
2021/11/28 04:34:14;;;;;;;0.28;0.28;;;;;;;;;;1832956;77;26551;-28
2021/11/28 04:36:42;;;;;;;0.20;0.20;;;;;;;;;;1848223;76;26325;-28
2021/11/28 04:39:10;;;;;;;0.30;0.30;;;;;;;;;;1839433;76;26673;-28
2021/11/28 04:41:38;;;;;;;0.47;0.33;;;;;;;;;;1853164;77;26241;-28
2021/11/28 04:44:05;;;;;;;0.30;0.30;;;;;;;;;;1848240;76;26680;-27
2021/11/28 04:46:33;;;;;;;1.15;0.28;;;;;;;;;;1847805;77;26634;-28
2021/11/28 04:49:02;;;;;;;0.28;0.28;;;;;;;;;;1849195;76;26782;-28
2021/11/28 04:51:30;;;;;;;0.30;0.30;;;;;;;;;;1850885;77;26285;-28
2021/11/28 04:53:58;;;;;;;0.20;0.20;;;;;;;;;;1851326;76;26269;-28
2021/11/28 04:56:26;;;;;;;0.20;0.20;;;;;;;;;;1844728;76;26562;-28
2021/11/28 04:58:55;;;;;;;0.30;0.30;;;;;;;;;;1855913;77;26206;-28
2021/11/28 05:01:23;;;;;;;0.28;0.28;;;;;;;;;;1855757;76;26583;-28
2021/11/28 05:03:51;;;;;;;0.33;0.33;;;;;;;;;;1846390;77;26693;-29
2021/11/28 05:06:18;;;;;;;0.20;0.20;;;;;;;;;;1855349;76;26252;-28
2021/11/28 05:08:46;;;;;;;0.20;0.20;;;;;;;;;;1846601;76;26669;-28
2021/11/28 05:11:13;;;;;;;0.53;0.30;;;;;;;;;;1847360;77;26370;-29
2021/11/28 05:13:41;;;;;;;0.20;0.20;;;;;;;;;;1845052;76;26339;-29
2021/11/28 05:16:08;;;;;;;0.30;0.30;;;;;;;;;;1850853;77;26316;-28
2021/11/28 05:18:35;;;;;;;0.25;0.25;;;;;;;;;;1843982;77;26264;-29
2021/11/28 05:21:03;;;;;;;0.25;0.25;;;;;;;;;;1846058;76;27363;-27
2021/11/28 05:23:30;;;;;;;0.30;0.30;;;;;;;;;;1842194;76;26265;-28
2021/11/28 05:25:58;;;;;;;0.30;0.30;;;;;;;;;;1850506;76;26350;-28
2021/11/28 05:28:25;;;;;;;0.37;0.37;;;;;;;;;;1847173;76;26321;-28
2021/11/28 05:30:52;;;;;;;0.30;0.30;;;;;;;;;;1843247;76;26793;-27
2021/11/28 05:33:20;;;;;;;0.20;0.20;;;;;;;;;;1850878;76;26238;-29
2021/11/28 05:35:47;;;;;;;0.20;0.20;;;;;;;;;;1840076;76;26363;-29
2021/11/28 05:38:14;;;;;;;0.25;0.25;;;;;;;;;;1839144;77;26329;-28
2021/11/28 05:40:42;;;;;;;0.20;0.20;;;;;;;;;;1832770;76;26281;-29
2021/11/28 05:43:09;;;;;;;0.20;0.20;;;;;;;;;;1840096;77;26273;-28
2021/11/28 05:45:36;;;;;;;0.45;0.30;;;;;;;;;;1827890;76;26267;-28
2021/11/28 05:48:04;;;;;;;0.35;0.35;;;;;;;;;;1836896;77;26795;-28
2021/11/28 05:50:32;;;;;;;0.40;0.40;;;;;;;;;;1846569;77;26264;-28
2021/11/28 05:52:59;;;;;;;0.30;0.30;;;;;;;;;;1845675;76;26668;-28
2021/11/28 05:55:27;;;;;;;3.42;0.40;;;;;;;;;;1828827;77;26331;-28
2021/11/28 05:57:54;;;;;;;0.30;0.30;;;;;;;;;;1846708;76;26292;-28
2021/11/28 06:00:22;;;;;;;0.28;0.28;;;;;;;;;;1843733;77;26855;-28
2021/11/28 06:02:49;;;;;;;0.23;0.23;;;;;;;;;;1834605;77;26354;-29
2021/11/28 06:05:16;;;;;;;0.30;0.30;;;;;;;;;;1837116;77;26785;-29
2021/11/28 06:07:44;;;;;;;0.42;0.42;;;;;;;;;;1830698;77;26261;-29
2021/11/28 06:10:11;;;;;;;0.20;0.20;;;;;;;;;;1825338;76;26795;-29
2021/11/28 06:12:39;;;;;;;0.30;0.30;;;;;;;;;;1825371;77;26269;-29
2021/11/28 06:15:07;;;;;;;0.30;0.30;;;;;;;;;;1843302;76;27421;-28
2021/11/28 06:17:34;;;;;;;0.33;0.33;;;;;;;;;;1841755;77;26315;-28
2021/11/28 06:20:01;;;;;;;0.30;0.30;;;;;;;;;;1843470;76;26281;-28
2021/11/28 06:22:29;;;;;;;0.30;0.30;;;;;;;;;;1845794;76;26265;-28
2021/11/28 06:24:57;;;;;;;0.30;0.30;;;;;;;;;;1838815;76;26327;-28
2021/11/28 06:27:25;;;;;;;0.25;0.23;;;;;;;;;;1839599;77;26277;-28
2021/11/28 06:29:52;;;;;;;0.20;0.20;;;;;;;;;;1845534;76;26294;-28
2021/11/28 06:32:19;;;;;;;0.42;0.33;;;;;;;;;;1838090;77;26296;-29
2021/11/28 06:34:47;;;;;;;0.90;0.30;;;;;;;;;;1836667;77;26425;-29
2021/11/28 06:37:15;;;;;;;0.35;0.35;;;;;;;;;;1853198;75;26248;-28
2021/11/28 06:39:42;;;;;;;0.30;0.30;;;;;;;;;;1858824;76;26246;-28
2021/11/28 06:42:10;;;;;;;1.07;0.40;;;;;;;;;;1859514;75;26330;-28
2021/11/28 06:44:37;;;;;;;0.37;0.30;;;;;;;;;;1851371;77;26276;-29
2021/11/28 06:47:04;;;;;;;0.30;0.30;;;;;;;;;;1855023;75;26323;-28
2021/11/28 06:49:32;;;;;;;0.23;0.20;;;;;;;;;;1854577;75;26296;-28
2021/11/28 06:51:59;;;;;;;0.30;0.30;;;;;;;;;;1844817;75;26327;-28
2021/11/28 06:54:27;;;;;;;0.20;0.20;;;;;;;;;;1842681;75;26308;-28
2021/11/28 06:56:55;;;;;;;0.28;0.28;;;;;;;;;;1851572;77;26315;-27
2021/11/28 06:59:23;;;;;;;0.30;0.30;;;;;;;;;;1847609;75;26284;-28
2021/11/28 07:01:50;;;;;;;1.20;0.50;;;;;;;;;;1857881;75;26260;-28
2021/11/28 07:04:17;;;;;;;1.25;0.65;;;;;;;;;;1845577;75;26741;-28
2021/11/28 07:06:45;;;;;;;5.58;0.50;;;;;;;;;;1857062;77;26306;-28
2021/11/28 07:09:12;;;;;;;1.60;0.40;;;;;;;;;;1859833;75;26281;-28
2021/11/28 07:11:40;;;;;;;0.60;0.60;;;;;;;;;;1854387;75;26819;-29
2021/11/28 07:14:07;;;;;;;0.55;0.50;;;;;;;;;;1854793;77;26655;-28
2021/11/28 07:16:34;;;;;;;1.70;0.60;;;;;;;;;;1842674;75;26277;-28
2021/11/28 07:19:02;;;;;;;1.00;0.42;;;;;;;;;;1847812;75;26787;-28
2021/11/28 07:21:29;;;;;;;0.57;0.50;;;;;;;;;;1858274;75;26256;-29
2021/11/28 07:23:56;;;;;;;1.60;0.55;;;;;;;;;;1852122;77;26300;-28
2021/11/28 07:26:23;;;;;;;4.50;0.47;;;;;;;;;;1862522;75;26269;-28
2021/11/28 07:28:51;;;;;;;3.05;0.50;;;;;;;;;;1856829;75;26306;-28
2021/11/28 07:31:18;;;;;;;1.67;0.57;;;;;;;;;;1862708;75;27679;-28
2021/11/28 07:33:46;;;;;;;1.87;0.40;;;;;;;;;;1858957;77;26283;-28
2021/11/28 07:36:13;;;;;;;2.60;0.62;;;;;;;;;;1857927;76;26393;-29
2021/11/28 07:38:40;;;;;;;2.37;0.70;;;;;;;;;;1849013;76;26249;-29
2021/11/28 07:41:08;;;;;;;9.08;1.00;;;;;;;;;;1840989;77;26343;-28
2021/11/28 07:43:35;;;;;;;5.45;1.15;;;;;;;;;;1846302;76;26298;-28
2021/11/28 07:46:02;;;;;;;5.17;0.68;;;;;;;;;;1853078;76;26351;-28
2021/11/28 07:48:30;;;;;;;1.57;0.70;;;;;;;;;;1838138;77;26279;-28
2021/11/28 07:51:02;;;;;;;5.00;0.90;;;;;;;;;;1851147;77;26265;-28
2021/11/28 07:53:27;;;;;;;7.03;1.00;;;;;;;;;;1842312;76;26338;-28
2021/11/28 07:55:54;;;;;;;3.25;0.70;;;;;;;;;;1849082;77;26583;-29
2021/11/28 07:58:22;;;;;;;8.60;1.07;;;;;;;;;;1854702;76;26261;-28
2021/11/28 08:00:49;;;;;;;3.33;0.95;;;;;;;;;;1842794;77;26301;-28
2021/11/28 08:03:16;;;;;;;8.75;1.40;;;;;;;;;;1851808;77;26280;-28
2021/11/28 08:05:44;;;;;;;3.75;1.07;;;;;;;;;;1841976;76;26351;-29
2021/11/28 08:08:11;;;;;;;3.70;0.80;;;;;;;;;;1849196;76;26715;-28
2021/11/28 08:10:39;;;;;;;2.10;1.10;;;;;;;;;;1852264;76;26822;-29
2021/11/28 08:13:06;;;;;;;4.60;1.10;;;;;;;;;;1846740;77;26388;-35
2021/11/28 08:15:33;;;;;;;2.02;1.00;;;;;;;;;;1844083;77;26966;-28
2021/11/28 08:18:01;;;;;;;3.33;1.07;;;;;;;;;;1850548;77;26280;-27
2021/11/28 08:20:28;;;;;;;3.70;0.98;;;;;;;;;;1842615;76;26347;-27
2021/11/28 08:22:55;;;;;;;4.60;1.00;;;;;;;;;;1834902;77;26256;-28
2021/11/28 08:25:23;;;;;;;3.27;1.15;;;;;;;;;;1844304;77;26834;-28
2021/11/28 08:27:50;;;;;;;1.87;0.93;;;;;;;;;;1848116;76;26335;-28
2021/11/28 08:30:18;;;;;;;4.08;1.20;;;;;;;;;;1853438;77;26984;-29
2021/11/28 08:32:48;;;;;;;3.02;1.25;;;;;;;;;;1854003;76;26346;-28
2021/11/28 08:35:16;;;;;;;2.22;1.40;;;;;;;;;;1849718;76;26347;-28
2021/11/28 08:37:43;;;;;;;2.85;1.10;;;;;;;;;;1848162;76;26371;-28
2021/11/28 08:40:12;;;;;;;3.27;1.17;;;;;;;;;;1840242;77;26677;-27
2021/11/28 08:42:39;;;;;;;1.20;1.10;;;;;;;;;;1845235;76;26654;-29
2021/11/28 08:45:08;;;;;;;1.30;1.20;;;;;;;;;;1838138;77;26281;-28
2021/11/28 08:47:35;;;;;;;3.90;1.25;;;;;;;;;;1832736;76;26270;-30
2021/11/28 08:50:04;;;;;;;2.62;1.10;;;;;;;;;;1844084;77;26305;-28
2021/11/28 08:52:31;;;;;;;3.83;1.17;;;;;;;;;;1843273;76;26339;-28
2021/11/28 08:54:59;;;;;;;1.45;1.15;;;;;;;;;;1836238;76;26304;-27
2021/11/28 08:57:26;;;;;;;1.85;1.17;;;;;;;;;;1840944;77;26679;-28
2021/11/28 08:59:53;;;;;;;1.07;1.00;;;;;;;;;;1842113;76;26820;-29
2021/11/28 09:02:21;;;;;;;1.40;1.30;;;;;;;;;;1839650;76;26257;-29
2021/11/28 09:04:48;;;;;;;1.15;0.93;;;;;;;;;;1832912;76;26383;-29
2021/11/28 09:07:15;;;;;;;2.83;1.20;;;;;;;;;;1831653;76;26347;-29
2021/11/28 09:09:43;;;;;;;2.55;1.30;;;;;;;;;;1843815;76;26298;-28
2021/11/28 09:12:11;;;;;;;1.40;1.12;;;;;;;;;;1847719;77;26266;-28
2021/11/28 09:14:38;;;;;;;1.22;1.17;;;;;;;;;;1842677;76;26213;-28
2021/11/28 09:17:05;;;;;;;1.20;1.10;;;;;;;;;;1843950;77;26269;-28
2021/11/28 09:22:03;;;;;;;3.12;1.20;;;;;;;;;;1839816;76;26348;-28
2021/11/28 09:24:36;;;;;;;3.05;1.00;;;;;;;;;;1844196;76;26312;-30
2021/11/28 09:27:06;;;;;;;1.85;1.00;;;;;;;;;;1837778;76;26285;-28
2021/11/28 09:29:38;;;;;;;4.15;1.35;;;;;;;;;;1840281;76;26339;-27
2021/11/28 09:32:06;;;;;;;2.20;1.07;;;;;;;;;;1845130;76;26309;-28
2021/11/28 09:34:33;;;;;;;1.67;0.90;;;;;;;;;;1840934;76;26870;-29
2021/11/28 09:37:01;;;;;;;4.67;1.70;;;;;;;;;;1838514;76;26257;-29
2021/11/28 09:39:29;;;;;;;3.90;1.00;;;;;;;;;;1848035;76;26367;-29
2021/11/28 09:42:01;;;;;;;3.05;1.20;;;;;;;;;;1848948;76;26249;-27
2021/11/28 09:44:29;;;;;;;1.72;1.00;;;;;;;;;;1851022;77;26379;-27
2021/11/28 09:46:58;;;;;;;1.05;1.00;;;;;;;;;;1843312;76;26375;-28
2021/11/28 09:49:26;;;;;;;1.15;1.10;;;;;;;;;;1849988;77;26289;-28
2021/11/28 09:51:57;;;;;;;2.58;1.00;;;;;;;;;;1844381;76;26311;-28
2021/11/28 09:54:25;;;;;;;3.37;0.93;;;;;;;;;;1846149;76;26326;-27
2021/11/28 09:56:52;;;;;;;2.62;1.57;;;;;;;;;;1838844;76;26325;-28
2021/11/28 09:59:19;;;;;;;3.22;1.00;;;;;;;;;;1843694;76;26265;-28
2021/11/28 10:01:47;;;;;;;3.02;1.10;;;;;;;;;;1842584;76;26322;-28
2021/11/28 10:04:14;;;;;;;2.87;1.15;;;;;;;;;;1848357;77;26836;-28
2021/11/28 10:06:41;;;;;;;1.32;0.93;;;;;;;;;;1846066;77;26264;-27
2021/11/28 10:09:09;;;;;;;0.90;0.90;;;;;;;;;;1849222;76;26241;-27
2021/11/28 10:11:45;;;;;;;1.82;1.15;;;;;;;;;;1844891;77;26261;-29
2021/11/28 10:14:14;;;;;;;1.17;1.00;;;;;;;;;;1842702;77;26331;-28
2021/11/28 10:16:42;;;;;;;2.60;0.98;;;;;;;;;;1854428;76;26273;-28
2021/11/28 10:19:10;;;;;;;0.80;0.80;;;;;;;;;;1844780;76;27450;-28
2021/11/28 10:21:38;;;;;;;2.47;1.05;;;;;;;;;;1849759;76;26840;-29
2021/11/28 10:24:07;;;;;;;1.00;0.80;;;;;;;;;;1839057;76;26316;-29
2021/11/28 10:26:35;;;;;;;1.27;0.80;;;;;;;;;;1847323;77;26312;-28
2021/11/28 10:29:10;;;;;;;2.55;1.00;;;;;;;;;;1849463;76;26878;-28
2021/11/28 10:31:57;;;;;;;0.88;0.65;;;;;;;;;;1843788;77;26273;-29
2021/11/28 10:34:25;;;;;;;0.82;0.80;;;;;;;;;;1851859;77;27673;-28
2021/11/28 10:36:54;;;;;;;1.45;1.32;;;;;;;;;;1845710;77;26360;-29
2021/11/28 10:39:23;;;;;;;1.57;1.25;;;;;;;;;;1858961;75;26371;-29
2021/11/28 10:41:55;;;;;;;2.20;1.77;;;;;;;;;;1859393;76;26281;-29
2021/11/28 10:44:23;;;;;;;1.92;1.80;;;;;;;;;;1852454;77;26326;-29
2021/11/28 10:46:52;;;;;;;3.08;2.17;;;;;;;;;;1856424;75;26260;-30
2021/11/28 10:49:20;;;;;;;4.47;2.62;;;;;;;;;;1856128;77;26249;-29
2021/11/28 10:51:50;;;;;;;2.87;2.40;;;;;;;;;;1854059;76;26276;-28
2021/11/28 10:54:30;;;;;;;4.03;2.72;;;;;;;;;;1857224;75;27311;-28
2021/11/28 10:57:08;;;;;;;3.45;3.00;;;;;;;;;;1844840;77;26646;-29
2021/11/28 10:59:36;;;;;;;4.45;3.10;;;;;;;;;;1851870;75;26693;-29
2021/11/28 11:02:23;;;;;;;5.00;3.12;;;;;;;;;;1857879;75;26244;-28
2021/11/28 11:04:53;;;;;;;3.50;2.70;;;;;;;;;;1858318;77;26362;-28
2021/11/28 11:07:22;;;;;;;3.50;2.87;;;;;;;;;;1851685;76;26240;-29
2021/11/28 11:09:51;;;;;;;4.45;3.10;;;;;;;;;;1857349;75;26339;-29
2021/11/28 11:12:20;;;;;;;3.70;2.80;;;;;;;;;;1851891;75;26265;-28
2021/11/28 11:14:48;;;;;;;2.83;2.52;;;;;;;;;;1849077;77;26291;-29
2021/11/28 11:17:16;;;;;;;5.58;2.72;;;;;;;;;;1856370;76;26292;-28
2021/11/28 11:19:48;;;;;;;3.02;2.77;;;;;;;;;;1858378;77;26205;-29
2021/11/28 11:22:25;;;;;;;3.12;2.60;;;;;;;;;;1848136;75;26426;-28
2021/11/28 11:24:56;;;;;;;3.62;2.60;;;;;;;;;;1851229;75;26681;-29
2021/11/28 11:27:40;;;;;;;3.52;2.42;;;;;;;;;;1856653;75;26363;-28
2021/11/28 11:30:09;;;;;;;4.75;2.67;;;;;;;;;;1856822;75;26272;-29
2021/11/28 11:32:44;;;;;;;3.40;2.25;;;;;;;;;;1844141;75;26264;-29
2021/11/28 11:35:22;;;;;;;2.65;2.10;;;;;;;;;;1847964;75;26822;-29
2021/11/28 11:37:50;;;;;;;3.62;2.10;;;;;;;;;;1855480;75;26206;-29
2021/11/28 11:40:19;;;;;;;1.80;1.70;;;;;;;;;;1854812;76;26350;-28
2021/11/28 11:42:48;;;;;;;3.25;1.70;;;;;;;;;;1842015;76;26327;-29
2021/11/28 11:45:16;;;;;;;2.75;2.00;;;;;;;;;;1848503;77;26265;-29
2021/11/28 11:47:44;;;;;;;2.40;1.87;;;;;;;;;;1855459;76;26595;-28
2021/11/28 11:50:13;;;;;;;2.12;1.90;;;;;;;;;;1851632;76;26272;-29
2021/11/28 11:52:41;;;;;;;1.82;1.60;;;;;;;;;;1848149;76;26386;-29
2021/11/28 11:55:10;;;;;;;2.75;1.50;;;;;;;;;;1853014;76;25798;-29
2021/11/28 11:57:39;;;;;;;3.05;1.62;;;;;;;;;;1850197;76;26316;-29
2021/11/28 12:00:17;;;;;;;1.40;1.30;;;;;;;;;;1854851;76;26630;-29
2021/11/28 12:02:45;;;;;;;1.60;1.50;;;;;;;;;;1849013;76;26237;-30
2021/11/28 12:05:28;;;;;;;2.62;1.50;;;;;;;;;;1843756;76;26320;-28
2021/11/28 12:08:00;;;;;;;1.40;1.30;;;;;;;;;;1843669;76;26266;-27
2021/11/28 12:10:29;;;;;;;2.22;1.30;;;;;;;;;;1841891;76;26316;-28
2021/11/28 12:12:57;;;;;;;1.72;1.35;;;;;;;;;;1851378;76;26332;-28
2021/11/28 12:15:26;;;;;;;4.00;1.85;;;;;;;;;;1844676;76;26310;-28
2021/11/28 12:17:55;;;;;;;4.20;1.60;;;;;;;;;;1848230;76;26320;-28
2021/11/28 12:20:40;;;;;;;5.47;1.72;;;;;;;;;;1850994;76;27002;-28
2021/11/28 12:23:07;;;;;;;6.67;2.25;;;;;;;;;;1844259;76;26926;-27
2021/11/28 12:25:48;;;;;;;8.58;2.40;;;;;;;;;;1846397;76;26347;-28
2021/11/28 12:28:16;;;;;;;9.23;2.80;;;;;;;;;;1853263;76;26276;-27
2021/11/28 12:30:45;;;;;;;6.80;2.52;;;;;;;;;;1842091;76;26331;-28
2021/11/28 12:33:12;;;;;;;8.23;2.75;;;;;;;;;;1850563;76;26320;-28
2021/11/28 12:35:40;;;;;;;10.13;3.10;;;;;;;;;;1840734;77;26896;-27
2021/11/28 12:38:07;;;;;;;12.20;3.02;;;;;;;;;;1854406;77;26252;-28
2021/11/28 12:40:35;;;;;;;9.00;3.00;;;;;;;;;;1851068;76;26358;-27
2021/11/28 12:43:22;;;;;;;10.63;3.10;;;;;;;;;;1852738;77;26272;-28
2021/11/28 12:45:50;;;;;;;14.23;3.20;;;;;;;;;;1852221;76;26736;-28
2021/11/28 12:48:18;;;;;;;12.88;3.17;;;;;;;;;;1845327;77;26266;-27
2021/11/28 12:50:50;;;;;;;12.33;2.98;;;;;;;;;;1847228;76;26263;-28
2021/11/28 12:53:19;;;;;;;10.80;3.50;;;;;;;;;;1829283;76;29950;-27
2021/11/28 12:55:47;;;;;;;9.98;2.92;;;;;;;;;;1844994;76;26764;-28
2021/11/28 12:58:15;;;;;;;10.60;3.27;;;;;;;;;;1842756;76;26258;-27
2021/11/28 13:00:49;;;;;;;11.20;3.05;;;;;;;;;;1857178;77;26269;-27
2021/11/28 13:03:18;;;;;;;8.75;2.80;;;;;;;;;;1851495;76;26744;-28
2021/11/28 13:05:52;;;;;;;8.10;3.10;;;;;;;;;;1853147;76;26730;-28
2021/11/28 13:08:25;;;;;;;9.65;3.00;;;;;;;;;;1854362;76;26873;-28
2021/11/28 13:10:53;;;;;;;9.98;3.22;;;;;;;;;;1849194;77;26281;-29
2021/11/28 13:13:26;;;;;;;7.67;2.80;;;;;;;;;;1840658;76;26257;-29
2021/11/28 13:15:54;;;;;;;10.28;3.62;;;;;;;;;;1851393;76;26304;-29
2021/11/28 13:18:24;;;;;;;10.03;3.47;;;;;;;;;;1852469;77;26257;-29
2021/11/28 13:20:53;;;;;;;11.40;4.30;;;;;;;;;;1855384;77;26265;-30
2021/11/28 13:23:21;;;;;;;7.78;4.10;;;;;;;;;;1849902;76;26293;-29
2021/11/28 13:25:51;;;;;;;11.75;4.70;;;;;;;;;;1853171;76;26313;-28
2021/11/28 13:28:20;;;;;;;10.85;5.45;;;;;;;;;;1854347;76;26259;-28
2021/11/28 13:30:50;;;;;;;11.70;5.37;;;;;;;;;;1846936;76;26277;-28
2021/11/28 13:33:19;;;;;;;12.03;4.92;;;;;;;;;;1853990;76;26335;-28
2021/11/28 13:35:58;;;;;;;13.13;5.60;;;;;;;;;;1842890;77;26328;-29
2021/11/28 13:38:29;;;;;;;13.28;5.37;;;;;;;;;;1851584;76;26309;-28
2021/11/28 13:41:04;;;;;;;11.48;5.62;;;;;;;;;;1842657;76;26819;-28
2021/11/28 13:43:33;;;;;;;12.23;5.12;;;;;;;;;;1841343;76;26252;-28
2021/11/28 13:46:00;;;;;;;11.53;5.15;;;;;;;;;;1844907;77;26253;-28
2021/11/28 13:48:44;;;;;;;13.78;5.58;;;;;;;;;;1836418;76;26347;-29
2021/11/28 13:51:12;;;;;;;14.03;5.20;;;;;;;;;;1841148;76;26257;-29
2021/11/28 13:53:49;;;;;;;14.43;5.45;;;;;;;;;;1835323;76;26327;-30
2021/11/28 13:56:17;;;;;;;19.90;5.53;;;;;;;;;;1841186;76;26706;-28
2021/11/28 13:58:44;;;;;;;20.35;5.28;;;;;;;;;;1845281;76;26332;-29
2021/11/28 14:01:12;;;;;;;14.85;5.10;;;;;;;;;;1845757;76;26281;-29
2021/11/28 14:03:41;;;;;;;16.12;5.05;;;;;;;;;;1844748;76;26234;-29
2021/11/28 14:06:08;;;;;;;16.45;5.05;;;;;;;;;;1835018;76;26693;-29
2021/11/28 14:08:36;;;;;;;15.55;4.85;;;;;;;;;;1844471;77;26190;-28
2021/11/28 14:11:13;;;;;;;14.90;4.33;;;;;;;;;;1842395;76;26260;-29
2021/11/28 14:13:45;;;;;;;16.60;4.28;;;;;;;;;;1839712;77;26249;-28
2021/11/28 14:16:12;;;;;;;15.63;3.90;;;;;;;;;;1829826;76;26324;-29
2021/11/28 14:18:43;;;;;;;14.15;3.83;;;;;;;;;;1851438;76;26253;-29
2021/11/28 14:21:10;;;;;;;8.75;3.67;;;;;;;;;;1836644;76;26717;-29
2021/11/28 14:23:38;;;;;;;9.45;3.58;;;;;;;;;;1845054;76;26195;-29
2021/11/28 14:26:05;;;;;;;8.68;3.62;;;;;;;;;;1859852;76;26297;-29
2021/11/28 14:28:36;;;;;;;10.70;3.77;;;;;;;;;;1855447;76;26433;-29
2021/11/28 14:31:05;;;;;;;11.38;3.17;;;;;;;;;;1837902;76;26798;-29
2021/11/28 14:33:37;;;;;;;10.55;3.12;;;;;;;;;;1834639;76;26549;-29
2021/11/28 14:36:06;;;;;;;7.22;2.55;;;;;;;;;;1830336;76;26277;-28
2021/11/28 14:38:41;;;;;;;8.30;2.90;;;;;;;;;;1826971;76;26402;-29
2021/11/28 14:41:10;;;;;;;8.43;2.62;;;;;;;;;;1828028;76;26306;-28
2021/11/28 14:43:54;;;;;;;6.87;2.50;;;;;;;;;;1849932;76;26713;-28
2021/11/28 14:46:32;;;;;;;4.90;2.55;;;;;;;;;;1857378;76;26296;-29
2021/11/28 14:49:01;;;;;;;6.50;2.50;;;;;;;;;;1849684;76;26249;-29
2021/11/28 14:51:41;;;;;;;7.42;2.42;;;;;;;;;;1847926;76;26252;-29
2021/11/28 14:54:19;;;;;;;5.10;2.47;;;;;;;;;;1841700;76;26329;-28
2021/11/28 14:56:49;;;;;;;4.35;1.80;;;;;;;;;;1844248;76;26268;-28
2021/11/28 14:59:26;;;;;;;14.20;2.35;;;;;;;;;;1848222;76;26296;-29
2021/11/28 15:01:51;;;;;;;5.55;2.33;;;;;;;;;;1845935;77;26281;-28